createdAt,value
2023-08-16T00:00:44.548Z,98896.47
2023-08-16T00:03:11.333Z,98895.78
2023-08-16T00:05:38.165Z,98893.22
2023-08-16T00:08:04.911Z,98890.84
2023-08-16T00:10:31.579Z,98900.66
2023-08-16T00:12:58.257Z,98898.13
2023-08-16T00:15:28.828Z,98894.78
2023-08-16T00:17:55.998Z,98899.94
2023-08-16T00:20:22.853Z,98905.28
2023-08-16T00:22:50.848Z,98902.78
2023-08-16T00:25:17.658Z,98899.41
2023-08-16T00:27:44.417Z,98900.09
2023-08-16T00:30:11.798Z,98896.75
2023-08-16T00:32:38.988Z,98903.06
2023-08-16T00:35:06.790Z,98909.22
2023-08-16T00:37:33.475Z,98909.50
2023-08-16T00:40:00.125Z,98898.84
2023-08-16T00:42:26.800Z,98904.31
2023-08-16T00:44:53.548Z,98905.97
2023-08-16T00:47:20.226Z,98919.19
2023-08-16T00:49:47.020Z,98912.31
2023-08-16T00:52:13.958Z,98921.16
2023-08-16T00:54:40.945Z,98913.97
2023-08-16T00:57:08.502Z,98923.66
2023-08-16T00:59:35.199Z,98912.16
2023-08-16T01:02:01.902Z,98906.72
2023-08-16T01:04:28.777Z,98893.38
2023-08-16T01:06:58.900Z,98879.22
2023-08-16T01:09:27.194Z,98878.22
2023-08-16T01:12:07.412Z,98876.84
2023-08-16T01:15:11.160Z,98870.66
2023-08-16T01:17:38.332Z,98867.44
2023-08-16T01:20:09.010Z,98871.22
2023-08-16T01:23:05.955Z,98872.78
2023-08-16T01:25:51.136Z,98870.38
2023-08-16T01:28:19.368Z,98876.84
2023-08-16T01:30:46.804Z,98889.47
2023-08-16T01:33:14.539Z,98885.09
2023-08-16T01:35:42.342Z,98898.16
2023-08-16T01:38:14.135Z,98908.81
2023-08-16T01:41:06.893Z,98906.00
2023-08-16T01:43:34.708Z,98893.09
2023-08-16T01:46:04.139Z,98900.84
2023-08-16T01:48:33.717Z,98900.84
2023-08-16T01:51:00.643Z,98911.19
2023-08-16T01:53:27.566Z,98907.28
2023-08-16T01:55:54.256Z,98914.28
2023-08-16T01:58:20.944Z,98907.28
2023-08-16T02:00:47.702Z,98901.66
2023-08-16T02:03:14.405Z,98898.00
2023-08-16T02:05:42.701Z,98905.72
2023-08-16T02:08:11.508Z,98897.03
2023-08-16T02:10:38.357Z,98891.00
2023-08-16T02:13:05.112Z,98889.31
2023-08-16T02:15:31.889Z,98898.59
2023-08-16T02:17:58.735Z,98885.56
2023-08-16T02:20:25.432Z,98897.19
2023-08-16T02:22:52.087Z,98898.16
2023-08-16T02:25:18.754Z,98891.88
2023-08-16T02:27:45.408Z,98878.53
2023-08-16T02:30:12.115Z,98879.66
2023-08-16T02:32:39.013Z,98876.28
2023-08-16T02:35:06.006Z,98865.78
2023-08-16T02:37:32.616Z,98868.59
2023-08-16T02:39:59.294Z,98865.34
2023-08-16T02:42:25.918Z,98855.81
2023-08-16T02:44:52.513Z,98853.31
2023-08-16T02:47:19.158Z,98844.63
2023-08-16T02:49:45.937Z,98849.38
2023-08-16T02:52:13.509Z,98853.16
2023-08-16T02:54:40.446Z,98846.44
2023-08-16T02:57:07.210Z,98857.34
2023-08-16T02:59:47.596Z,98856.91
2023-08-16T03:02:17.515Z,98855.09
2023-08-16T03:04:44.694Z,98863.94
2023-08-16T03:07:12.128Z,98861.53
2023-08-16T03:09:40.099Z,98861.28
2023-08-16T03:12:07.976Z,98877.50
2023-08-16T03:14:34.706Z,98882.41
2023-08-16T03:17:01.651Z,98885.47
2023-08-16T03:19:28.394Z,98882.69
2023-08-16T03:21:55.794Z,98878.34
2023-08-16T03:24:23.411Z,98877.66
2023-08-16T03:26:50.103Z,98884.78
2023-08-16T03:29:16.748Z,98882.00
2023-08-16T03:31:43.585Z,98879.06
2023-08-16T03:34:10.190Z,98861.81
2023-08-16T03:36:36.835Z,98877.09
2023-08-16T03:39:06.505Z,98876.41
2023-08-16T03:41:35.021Z,98879.06
2023-08-16T03:44:02.236Z,98874.31
2023-08-16T03:46:29.113Z,98875.84
2023-08-16T03:48:55.923Z,98875.84
2023-08-16T03:51:22.587Z,98874.72
2023-08-16T03:53:49.247Z,98869.28
2023-08-16T03:56:15.941Z,98862.97
2023-08-16T03:58:42.645Z,98854.97
2023-08-16T04:01:09.248Z,98864.78
2023-08-16T04:03:36.111Z,98862.09
2023-08-16T04:06:02.864Z,98854.97
2023-08-16T04:08:29.488Z,98852.72
2023-08-16T04:10:56.148Z,98862.16
2023-08-16T04:13:22.787Z,98866.50
2023-08-16T04:15:50.465Z,98864.44
2023-08-16T04:18:17.097Z,98866.00
2023-08-16T04:20:44.909Z,98865.03
2023-08-16T04:23:11.546Z,98868.41
2023-08-16T04:25:38.161Z,98878.91
2023-08-16T04:30:55.588Z,98879.63
2023-08-16T04:33:22.221Z,98884.38
2023-08-16T04:35:48.868Z,98876.28
2023-08-16T04:38:17.299Z,98864.38
2023-08-16T04:40:44.001Z,98850.66
2023-08-16T04:43:10.619Z,98855.81
2023-08-16T04:45:37.274Z,98856.66
2023-08-16T04:48:05.218Z,98854.81
2023-08-16T04:50:31.897Z,98847.69
2023-08-16T04:52:58.546Z,98837.03
2023-08-16T04:55:25.345Z,98848.53
2023-08-16T04:57:51.996Z,98854.13
2023-08-16T05:03:10.824Z,98859.03
2023-08-16T05:05:37.764Z,98871.50
2023-08-16T05:08:06.146Z,98884.69
2023-08-16T05:10:32.748Z,98887.03
2023-08-16T05:12:59.427Z,98886.19
2023-08-16T05:15:26.596Z,98890.28
2023-08-16T05:17:53.703Z,98906.38
2023-08-16T05:20:20.897Z,98909.47
2023-08-16T05:22:48.818Z,98923.91
2023-08-16T05:25:15.450Z,98913.41
2023-08-16T05:27:42.027Z,98898.56
2023-08-16T05:30:09.060Z,98893.50
2023-08-16T05:32:35.832Z,98897.72
2023-08-16T05:37:55.127Z,98891.13
2023-08-16T07:22:31.825Z,98927.03
2023-08-16T07:25:00.635Z,98926.06
2023-08-16T07:27:29.035Z,98919.25
2023-08-16T07:29:55.759Z,98921.91
2023-08-16T07:32:23.945Z,98924.94
2023-08-16T07:34:50.870Z,98926.78
2023-08-16T07:37:18.614Z,98926.63
2023-08-16T07:39:45.742Z,98926.78
2023-08-16T07:42:12.341Z,98926.91
2023-08-16T07:44:39.039Z,98924.66
2023-08-16T07:47:06.148Z,98920.69
2023-08-16T07:49:32.859Z,98917.69
2023-08-16T07:51:59.614Z,98912.34
2023-08-16T07:54:26.427Z,98910.81
2023-08-16T07:56:53.392Z,98914.72
2023-08-16T07:59:20.428Z,98923.94
2023-08-16T08:01:47.236Z,98925.22
2023-08-16T08:04:13.948Z,98928.28
2023-08-16T08:06:41.314Z,98931.28
2023-08-16T08:09:08.227Z,98931.97
2023-08-16T08:11:34.827Z,98930.44
2023-08-16T08:14:02.308Z,98938.84
2023-08-16T08:16:28.903Z,98943.50
2023-08-16T08:18:55.605Z,98946.69
2023-08-16T08:21:22.696Z,98947.69
2023-08-16T08:23:49.362Z,98953.00
2023-08-16T08:26:17.443Z,98948.25
2023-08-16T08:28:45.311Z,98951.78
2023-08-16T08:31:12.581Z,98949.94
2023-08-16T08:33:39.628Z,98949.75
2023-08-16T08:36:07.815Z,98945.19
2023-08-16T08:38:39.345Z,98943.94
2023-08-16T08:41:07.622Z,98947.13
2023-08-16T08:43:42.396Z,98950.56
2023-08-16T08:46:17.315Z,98945.88
2023-08-16T08:48:46.367Z,98942.78
2023-08-16T08:51:13.049Z,98941.72
2023-08-16T08:53:40.167Z,98939.63
2023-08-16T08:56:15.631Z,98946.94
2023-08-16T08:58:44.916Z,98948.16
2023-08-16T09:01:12.469Z,98945.34
2023-08-16T09:03:42.060Z,98940.91
2023-08-16T09:06:13.328Z,98930.28
2023-08-16T09:08:42.361Z,98945.09
2023-08-16T09:11:10.366Z,98945.47
2023-08-16T09:13:37.479Z,98944.16
2023-08-16T09:19:00.237Z,98947.47
2023-08-16T09:21:29.941Z,98948.66
2023-08-16T09:24:00.889Z,98942.16
2023-08-16T09:26:30.788Z,98935.22
2023-08-16T09:37:18.571Z,98931.59
2023-08-16T09:39:45.366Z,98928.44
2023-08-16T09:42:12.141Z,98920.91
2023-08-16T09:44:41.868Z,98926.75
2023-08-16T09:47:21.364Z,98927.66
2023-08-16T09:49:50.294Z,98926.41
2023-08-16T09:52:17.736Z,98928.47
2023-08-16T09:54:48.161Z,98928.47
2023-08-16T09:59:49.488Z,98928.66
2023-08-16T10:10:58.787Z,98907.53
2023-08-16T10:13:27.737Z,98899.13
2023-08-16T10:15:54.850Z,98895.47
2023-08-16T10:18:24.336Z,98904.16
2023-08-16T10:20:54.893Z,98895.84
2023-08-16T10:23:26.261Z,98891.28
2023-08-16T10:25:55.585Z,98891.16
2023-08-16T10:28:25.092Z,98885.56
2023-08-16T10:36:42.557Z,98877.78
2023-08-16T10:39:13.680Z,98880.00
2023-08-16T10:41:44.949Z,98886.28
2023-08-16T10:44:23.053Z,98878.28
2023-08-16T10:46:52.619Z,98871.88
2023-08-16T10:49:22.875Z,98871.50
2023-08-16T10:51:54.343Z,98866.75
2023-08-16T10:54:33.774Z,98859.28
2023-08-16T10:57:09.218Z,98865.25
2023-08-16T10:59:40.508Z,98864.84
2023-08-16T11:02:17.832Z,62137.28
2023-08-16T11:04:46.039Z,62137.28
2023-08-16T11:07:15.869Z,62137.28
2023-08-16T11:09:43.016Z,62137.28
2023-08-16T11:12:09.668Z,62137.28
2023-08-16T11:14:36.897Z,62137.28
2023-08-16T11:17:04.365Z,62137.28
2023-08-16T11:19:31.361Z,62137.28
2023-08-16T11:22:04.930Z,62137.28
2023-08-16T11:24:32.670Z,62137.28
2023-08-16T11:26:59.329Z,62137.28
2023-08-16T11:29:26.930Z,62137.28
2023-08-16T11:31:58.307Z,62137.28
2023-08-16T11:34:26.242Z,62137.28
2023-08-16T11:36:53.100Z,62137.28
2023-08-16T11:39:20.747Z,62137.28
2023-08-16T11:41:48.234Z,62137.28
2023-08-16T11:44:14.981Z,62137.28
2023-08-16T11:46:44.406Z,62137.28
2023-08-16T11:49:13.262Z,62137.28
2023-08-16T11:51:43.730Z,62137.28
2023-08-16T11:54:21.236Z,62137.28
2023-08-16T11:56:48.777Z,62137.28
2023-08-16T11:59:28.018Z,62137.28
2023-08-16T12:01:56.692Z,62137.28
2023-08-16T12:04:24.941Z,62137.28
2023-08-16T12:06:51.782Z,62137.28
2023-08-16T12:09:20.976Z,62137.28
2023-08-16T12:11:53.054Z,62137.28
2023-08-16T12:14:20.138Z,62137.28
2023-08-16T12:16:46.864Z,62137.28
2023-08-16T12:19:20.129Z,62137.28
2023-08-16T12:21:47.046Z,62137.28
2023-08-16T12:24:13.847Z,62137.28
2023-08-16T12:26:42.481Z,62137.28
2023-08-16T12:29:09.180Z,62137.28
2023-08-16T12:31:36.143Z,62137.28
2023-08-16T12:34:03.397Z,62137.28
2023-08-16T12:36:30.256Z,62137.28
2023-08-16T12:38:56.885Z,62137.28
2023-08-16T12:41:24.040Z,62137.28
2023-08-16T12:43:52.987Z,62137.28
2023-08-16T12:46:19.816Z,62137.28
2023-08-16T12:48:47.411Z,62137.28
2023-08-16T12:51:17.710Z,62137.28
2023-08-16T12:53:45.810Z,62137.28
2023-08-16T12:56:14.086Z,62137.28
2023-08-16T12:58:55.958Z,62137.28
2023-08-16T13:04:01.471Z,62137.28
2023-08-16T13:06:31.850Z,62137.28
2023-08-16T13:11:33.979Z,62137.28
2023-08-16T13:14:05.345Z,62137.28
2023-08-16T13:16:44.112Z,62137.28
2023-08-16T13:19:24.593Z,62137.28
2023-08-16T13:21:54.862Z,62137.28
2023-08-16T13:24:38.076Z,62137.28
2023-08-16T13:27:17.268Z,62137.28
2023-08-16T13:34:58.053Z,62137.28
2023-08-16T13:37:43.908Z,62137.28
2023-08-16T13:40:20.338Z,62137.28
2023-08-16T13:42:56.083Z,98864.84
2023-08-16T13:45:23.304Z,98790.03
2023-08-16T13:47:50.112Z,98773.97
2023-08-16T13:50:16.757Z,98768.25
2023-08-16T13:52:43.406Z,98771.69
2023-08-16T13:55:11.042Z,98781.88
2023-08-16T13:57:37.661Z,98773.91
2023-08-16T14:00:04.731Z,98781.16
2023-08-16T14:02:32.097Z,98780.13
2023-08-16T14:04:58.746Z,98779.34
2023-08-16T14:07:25.472Z,98773.69
2023-08-16T14:09:54.219Z,98769.97
2023-08-16T14:12:21.110Z,98769.59
2023-08-16T14:14:47.836Z,98763.94
2023-08-16T14:17:15.074Z,98770.28
2023-08-16T14:19:42.314Z,98771.25
2023-08-16T14:22:08.929Z,98770.03
2023-08-16T14:24:35.593Z,98774.72
2023-08-16T14:27:02.257Z,98780.03
2023-08-16T14:29:28.912Z,98775.28
2023-08-16T14:31:55.557Z,98777.81
2023-08-16T14:34:24.097Z,98767.63
2023-08-16T14:36:50.928Z,98767.06
2023-08-16T14:39:17.634Z,98763.16
2023-08-16T14:41:44.277Z,98757.75
2023-08-16T14:44:11.042Z,98758.03
2023-08-16T14:46:37.702Z,98759.94
2023-08-16T14:49:04.541Z,98759.34
2023-08-16T14:51:33.221Z,98759.56
2023-08-16T14:54:01.571Z,98756.25
2023-08-16T14:56:29.600Z,98755.69
2023-08-16T14:58:56.278Z,98759.03
2023-08-16T15:01:22.944Z,98763.66
2023-08-16T15:03:49.784Z,98757.00
2023-08-16T15:06:16.556Z,98750.38
2023-08-16T15:08:43.215Z,98746.38
2023-08-16T15:11:20.425Z,98753.91
2023-08-16T15:13:48.251Z,98740.00
2023-08-16T15:16:17.965Z,98731.91
2023-08-16T15:18:44.776Z,98725.88
2023-08-16T15:21:13.591Z,98725.91
2023-08-16T15:23:41.020Z,98723.41
2023-08-16T15:26:09.549Z,98742.53
2023-08-16T15:28:37.791Z,98754.00
2023-08-16T15:31:05.609Z,98761.88
2023-08-16T15:33:32.422Z,98792.66
2023-08-16T15:36:04.736Z,98807.34
2023-08-16T15:38:39.939Z,98807.34
2023-08-16T15:41:07.759Z,98807.34
2023-08-16T15:43:34.995Z,98844.22
2023-08-16T15:46:01.858Z,62137.28
2023-08-16T15:48:28.599Z,98877.63
2023-08-16T15:50:56.285Z,98878.56
2023-08-16T15:53:24.519Z,98884.50
2023-08-16T15:55:54.832Z,98867.06
2023-08-16T15:58:26.200Z,98865.22
2023-08-16T16:01:01.706Z,98846.44
2023-08-16T16:03:29.656Z,98851.84
2023-08-16T16:05:56.457Z,98843.13
2023-08-16T16:08:23.381Z,98843.13
2023-08-16T16:10:50.217Z,98854.53
2023-08-16T16:13:17.522Z,98833.22
2023-08-16T16:15:44.600Z,98812.78
2023-08-16T16:18:11.568Z,98820.66
2023-08-16T16:20:38.732Z,98826.88
2023-08-16T16:23:05.517Z,98789.66
2023-08-16T16:25:32.183Z,98771.56
2023-08-16T20:04:29.892Z,62137.28
2023-08-16T20:06:57.238Z,62137.28
2023-08-16T20:09:24.224Z,62137.28
2023-08-16T20:11:50.954Z,62137.28
2023-08-16T20:14:17.647Z,62137.28
2023-08-16T20:16:44.604Z,62137.28
2023-08-16T20:19:11.302Z,62137.28
2023-08-16T20:21:37.972Z,62137.28
2023-08-16T20:24:05.013Z,62137.28
2023-08-16T20:26:31.828Z,62137.28
2023-08-16T20:28:58.432Z,62137.28
2023-08-16T20:31:25.226Z,62137.28
2023-08-16T20:33:51.981Z,62137.28
2023-08-16T20:36:18.646Z,62137.28
2023-08-16T20:38:45.321Z,62137.28
2023-08-16T20:41:12.012Z,62137.28
2023-08-16T20:43:39.090Z,62137.28
2023-08-16T20:46:08.023Z,62137.28
2023-08-16T20:48:35.068Z,62137.28
2023-08-16T20:51:01.776Z,62137.28
2023-08-16T20:53:28.544Z,62137.28
2023-08-16T20:55:56.503Z,62137.28
2023-08-16T20:58:23.268Z,62137.28
2023-08-16T21:00:49.872Z,62137.28
2023-08-16T21:03:16.994Z,62137.28
2023-08-16T21:05:43.700Z,62137.28
2023-08-16T21:08:11.058Z,62137.28
2023-08-16T21:10:37.772Z,62137.28
2023-08-16T21:13:04.629Z,62137.28
2023-08-16T21:15:33.169Z,62137.28
2023-08-16T21:17:59.921Z,62137.28
2023-08-16T21:20:26.769Z,62137.28
2023-08-16T21:22:53.489Z,62137.28
2023-08-16T21:25:20.205Z,62137.28
2023-08-16T21:27:46.912Z,62137.28
2023-08-16T21:30:13.617Z,62137.28
2023-08-16T21:32:40.328Z,62137.28
2023-08-16T21:35:08.186Z,62137.28
2023-08-16T21:37:35.030Z,62137.28
2023-08-16T21:40:01.724Z,62137.28
2023-08-16T21:42:29.087Z,62137.28
2023-08-16T21:44:55.749Z,62137.28
2023-08-16T21:47:22.513Z,62137.28
2023-08-16T21:49:49.304Z,62137.28
2023-08-16T21:52:15.909Z,62137.28
2023-08-16T21:54:42.585Z,62137.28
2023-08-16T21:57:10.161Z,62137.28
2023-08-16T21:59:36.793Z,62137.28
2023-08-16T22:02:03.585Z,62137.28
2023-08-16T22:04:30.232Z,62137.28
2023-08-16T22:06:56.874Z,62137.28
2023-08-16T22:09:23.963Z,62137.28
2023-08-16T22:11:50.674Z,62137.28
2023-08-16T22:14:19.620Z,62137.28
2023-08-16T22:16:46.482Z,62137.28
2023-08-16T22:19:13.315Z,62137.28
2023-08-16T22:21:40.637Z,62137.28
2023-08-16T22:24:08.147Z,62137.28
2023-08-16T22:26:35.269Z,62137.28
2023-08-16T22:29:02.632Z,62137.28
2023-08-16T22:31:29.317Z,62137.28
2023-08-16T22:33:56.086Z,62137.28
2023-08-16T22:36:23.554Z,62137.28
2023-08-16T22:38:50.276Z,62137.28
2023-08-16T22:41:17.115Z,62137.28
2023-08-16T22:43:43.915Z,62137.28
2023-08-16T22:46:11.598Z,62137.28
2023-08-16T22:48:38.619Z,62137.28
2023-08-16T22:51:05.512Z,62137.28
2023-08-16T22:53:32.128Z,62137.28
2023-08-16T22:55:58.747Z,62137.28
2023-08-16T22:58:26.151Z,62137.28
2023-08-16T23:00:53.173Z,62137.28
2023-08-16T23:03:19.947Z,62137.28
2023-08-16T23:05:46.659Z,62137.28
2023-08-16T23:08:13.278Z,62137.28
2023-08-16T23:10:43.569Z,62137.28
2023-08-16T23:13:10.247Z,62137.28
2023-08-16T23:15:37.571Z,62137.28
2023-08-16T23:18:05.282Z,62137.28
2023-08-16T23:20:32.232Z,62137.28
2023-08-16T23:22:58.986Z,62137.28
2023-08-16T23:25:25.627Z,62137.28
2023-08-16T23:27:52.420Z,62137.28
2023-08-16T23:30:19.064Z,62137.28
2023-08-16T23:32:45.925Z,62137.28
2023-08-16T23:35:12.754Z,62137.28
2023-08-16T23:37:39.406Z,62137.28
2023-08-16T23:40:07.046Z,62137.28
2023-08-16T23:42:33.677Z,62137.28
2023-08-16T23:45:00.919Z,62137.28
2023-08-16T23:47:27.769Z,62137.28
2023-08-16T23:49:54.721Z,62137.28
2023-08-16T23:52:21.365Z,62137.28
2023-08-16T23:54:48.037Z,62137.28
2023-08-16T23:57:14.794Z,62137.28
2023-08-16T23:59:46.405Z,62137.28
